Terminal Aerodrome Forecast
Issued by NWS

Home | Current Version | Previous Version | Text Only | Print | Product List | Glossary On
Versions: 1 2 3 4 5 6 7 8 9 10 11 12 13 14 15
000
FTUS44 KJAN 281120
TAFGTR
TAF
KGTR 281120Z 2812/2912 22011KT P6SM BKN015 OVC040
     FM281700 23012KT P6SM VCTS SCT025 BKN040CB
     FM282300 20006KT P6SM BKN150=

USA.gov is the U.S. government's official web portal to all federal, state and local government web resources and services.